Latest Weather Observations for Argyle

IDW60801

Issued at 6:35 pm WST Saturday 1 November 2014 (issued every 30 minutes, with the page automatically refreshed every 10 minutes)

About weather observations | Map of weather stations | Latest weather observations for WA | Other Formats
Station Details ID: 002064 Name: ARGYLE AERODROME Lat: -16.64 Lon: 128.45 Height: 164.0 m
Data from the previous 72 hours. | See also: Recent months at Argyle
Date/Time
WST
Temp
°C
App
Temp
°C
Dew
Point
Rel
Hum
%
Delta-T
°C
Wind Press
QNH
hPa
Press
MSL
hPa
Rain
since 9 am
mm
Dir
 
Spd
km/h
Gust
km/h
Spd
kts
Gust
kts
01/06:30pm 35.2 34.9 17.3 34 11.6 NNE 15 28 8 15 1008.7 - 0.0
01/06:00pm 35.6 33.6 16.4 32 12.3 NE 22 32 12 17 1008.2 1006.8 0.0
01/05:42pm 36.3 33.0 17.0 32 12.5 ENE 30 43 16 23 1007.8 - 0.0
01/05:30pm 37.2 35.9 15.8 28 13.7 N 17 24 9 13 1007.3 - 0.0
01/05:00pm 38.5 35.6 11.0 19 16.5 NE 17 24 9 13 1006.9 - 0.0
01/04:30pm 38.9 36.6 10.4 18 17.0 NE 13 24 7 13 1006.6 - 0.0
01/04:00pm 39.4 36.7 10.2 17 17.4 NNE 15 28 8 15 1006.6 - 0.0
01/03:30pm 40.4 36.2 8.3 14 18.6 N 20 28 11 15 1006.5 - 0.0
01/03:00pm 40.0 35.6 6.4 13 19.0 NNE 19 30 10 16 1006.6 1005.2 0.0
01/02:30pm 40.9 36.4 6.0 12 19.7 NNE 19 28 10 15 1006.9 - 0.0
01/02:00pm 40.1 39.2 11.5 18 17.4 N 7 13 4 7 1006.9 - 0.0
01/01:30pm 39.7 38.4 11.3 18 17.2 N 9 17 5 9 1007.1 - 0.0
01/01:00pm 39.8 36.5 9.5 16 17.9 ENE 17 24 9 13 1007.6 - 0.0
01/12:30pm 39.5 38.2 12.5 20 16.6 S 11 19 6 10 1008.2 - 0.0
01/12:00pm 38.4 36.5 12.9 22 15.7 ESE 15 22 8 12 1008.9 1007.5 0.0
01/11:30am 39.1 37.2 13.1 21 16.1 NE 15 24 8 13 1009.6 - 0.0
01/11:00am 37.7 36.2 13.2 23 15.1 SSE 13 22 7 12 1010.2 - 0.0
01/10:30am 37.3 35.6 13.6 24 14.7 SE 15 24 8 13 1010.8 - 0.0
01/10:00am 37.4 35.3 14.7 26 14.3 SE 19 24 10 13 1011.3 - 0.0
01/09:30am 36.6 36.4 14.6 27 13.8 SSE 9 22 5 12 1011.7 - 0.0
01/09:00am 34.8 34.4 16.1 32 11.9 ESE 13 19 7 10 1012.1 1010.8 0.0
01/08:30am 34.2 34.1 16.9 35 11.1 ESE 13 22 7 12 1012.5 - 0.0
01/08:00am 33.6 33.1 16.9 37 10.7 ESE 15 24 8 13 1012.8 - 0.0
01/07:30am 32.7 33.0 17.1 39 10.0 E 11 22 6 12 1012.6 - 0.0
01/07:00am 31.6 32.2 18.6 46 8.5 ESE 13 17 7 9 1012.4 - 0.0
01/06:30am 30.3 31.7 17.9 47 8.0 ESE 7 11 4 6 1012.2 - 0.0
01/06:00am 29.9 30.8 16.6 44 8.4 ESE 7 9 4 5 1011.6 1010.3 0.0
01/05:30am 29.8 30.9 17.0 46 8.1 SSE 7 13 4 7 1011.0 - 0.0
01/05:00am 29.6 32.2 17.4 47 7.8 CALM 0 0 0 0 1010.3 - 0.0
01/04:30am 30.0 31.5 17.7 47 7.9 N 6 7 3 4 1009.8 - 0.0
01/04:00am 29.8 30.4 16.8 45 8.2 NNW 9 13 5 7 1009.3 - 0.0
01/03:30am 29.9 30.3 16.4 44 8.5 WNW 9 11 5 6 1008.9 - 0.0
01/03:00am 29.9 31.0 17.0 45 8.2 NW 7 9 4 5 1008.6 1007.2 0.0
01/02:30am 30.1 31.9 16.5 44 8.6 W 2 7 1 4 1008.5 - 0.0
01/02:00am 30.0 30.8 16.3 43 8.6 WNW 7 7 4 4 1008.3 - 0.0
01/01:30am 30.3 31.0 16.1 42 8.9 WSW 7 9 4 5 1008.4 - 0.0
01/01:00am 30.5 30.3 15.8 41 9.2 N 11 15 6 8 1008.5 - 0.0
01/12:30am 30.7 31.3 15.8 40 9.3 NNW 7 11 4 6 1008.7 - 0.0
01/12:00am 30.9 30.1 15.1 38 9.8 N 13 17 7 9 1008.5 1007.2 0.0
 
Date/Time
WST
Temp
°C
App
Temp
°C
Dew
Point
Rel
Hum
%
Delta-T
°C
Wind Press
QNH
hPa
Press
MSL
hPa
Rain
since 9 am
mm
Dir
 
Spd
km/h
Gust
km/h
Spd
kts
Gust
kts
31/11:30pm 31.1 29.6 14.3 36 10.3 N 15 17 8 9 1008.6 - 0.0
31/11:00pm 31.4 30.5 13.8 34 10.7 NNW 11 15 6 8 1008.6 - 0.0
31/10:30pm 32.1 30.9 14.0 33 11.1 N 13 19 7 10 1008.7 - 0.0
31/10:00pm 32.7 31.1 13.9 32 11.5 N 15 20 8 11 1009.1 - 0.0
31/09:30pm 33.5 31.1 13.8 30 12.1 N 19 22 10 12 1009.3 - 0.0
31/09:00pm 34.4 32.3 13.5 28 12.8 NNW 17 20 9 11 1009.2 1007.9 0.0
31/08:30pm 35.1 31.5 13.2 26 13.4 NNW 24 32 13 17 1008.9 - 0.0
31/08:00pm 35.7 33.7 12.7 25 14.0 NNW 15 20 8 11 1008.9 - 0.0
31/07:30pm 36.4 33.9 12.3 23 14.6 NNW 17 22 9 12 1008.7 - 0.0
31/07:00pm 36.7 33.7 12.4 23 14.8 NNW 20 28 11 15 1008.3 - 0.0
31/06:30pm 37.1 32.9 12.3 22 15.1 N 26 35 14 19 1007.4 - 0.0
31/06:00pm 37.6 34.6 12.6 22 15.3 N 20 28 11 15 1006.6 1005.3 0.0
31/05:30pm 38.2 34.3 12.1 21 15.9 N 24 35 13 19 1006.3 - 0.0
31/05:00pm 38.7 34.7 11.7 20 16.4 N 24 32 13 17 1005.8 - 0.0
31/04:30pm 39.4 36.7 11.6 19 16.9 NNE 17 22 9 12 1005.3 - 0.0
31/04:00pm 40.3 36.7 9.9 16 18.1 NNE 19 30 10 16 1004.9 - 0.0
31/03:30pm 39.9 35.9 9.1 15 18.1 NE 20 32 11 17 1004.8 - 0.0
31/03:00pm 40.6 36.9 9.3 15 18.5 NNE 19 32 10 17 1004.9 1003.6 0.0
31/02:30pm 40.9 36.0 7.1 13 19.3 NNE 22 39 12 21 1005.1 - 0.0
31/02:00pm 41.5 36.6 7.1 12 19.7 N 22 41 12 22 1005.5 - 0.0
31/01:00pm 41.0 38.1 8.3 14 19.0 N 13 28 7 15 1006.1 - 0.0
31/12:30pm 41.8 39.7 9.6 14 19.2 W 11 22 6 12 1006.7 - 0.0
31/12:00pm 41.0 38.8 10.7 16 18.3 NW 13 24 7 13 1007.2 1005.9 0.0
31/11:30am 41.3 38.3 10.7 16 18.5 N 17 26 9 14 1007.8 - 0.0
31/11:00am 39.5 36.2 11.7 19 16.9 NW 20 26 11 14 1008.4 - 0.0
31/10:30am 38.7 36.5 14.4 23 15.3 NNW 19 28 10 15 1008.9 - 0.0
31/10:00am 38.2 36.3 15.2 25 14.6 NNW 19 30 10 16 1009.4 - 0.0
31/09:30am 37.9 36.1 15.5 26 14.3 NNW 19 28 10 15 1009.8 - 0.0
31/09:00am 37.1 35.8 15.8 28 13.6 NNW 17 26 9 14 1010.2 1008.9 0.0
31/08:30am 36.1 34.7 16.5 31 12.6 N 19 24 10 13 1010.6 - 0.0
31/08:00am 34.7 34.3 18.0 37 10.9 N 17 24 9 13 1010.8 - 0.0
31/07:30am 33.9 34.3 18.9 41 9.9 N 15 24 8 13 1010.6 - 0.0
31/07:00am 32.8 33.8 19.5 45 8.8 N 13 17 7 9 1010.4 - 0.0
31/06:30am 31.5 40.2 31.4 99 0.1 N 13 20 7 11 1010.1 - 0.0
31/06:00am 30.2 37.5 30.2 100 0.0 N 15 20 8 11 1009.8 1008.5 0.0
31/05:30am 29.4 36.8 29.4 100 0.0 N 11 15 6 8 1009.5 - 0.0
31/05:00am 29.2 36.1 29.2 100 0.0 N 13 17 7 9 1009.0 - 0.0
31/04:30am 29.4 36.5 29.4 100 0.0 N 13 17 7 9 1008.8 - 0.0
31/04:00am 29.6 36.8 29.6 100 0.0 N 13 17 7 9 1008.4 - 0.0
31/03:30am 29.8 37.2 29.8 100 0.0 N 13 17 7 9 1008.2 - 0.0
31/03:00am 30.4 38.3 30.4 100 0.0 N 13 15 7 8 1007.8 1006.5 0.0
31/02:30am 30.5 38.4 30.5 100 0.0 N 13 17 7 9 1007.5 - 0.0
31/02:00am 30.7 38.8 30.7 100 0.0 N 13 15 7 8 1007.6 - 0.0
31/01:30am 31.3 37.8 28.7 86 1.9 N 13 15 7 8 1007.5 - 0.0
31/01:00am 31.7 31.5 15.8 38 10.0 N 11 17 6 9 1007.7 - 0.0
31/12:30am 31.9 31.7 14.8 35 10.6 NNW 9 13 5 7 1008.0 - 0.0
31/12:00am 32.3 31.2 14.2 33 11.1 N 13 15 7 8 1008.0 1006.7 0.0
 
Date/Time
WST
Temp
°C
App
Temp
°C
Dew
Point
Rel
Hum
%
Delta-T
°C
Wind Press
QNH
hPa
Press
MSL
hPa
Rain
since 9 am
mm
Dir
 
Spd
km/h
Gust
km/h
Spd
kts
Gust
kts
30/11:30pm 32.8 31.1 13.6 31 11.7 NNW 15 20 8 11 1008.0 - 0.0
30/11:00pm 32.9 30.6 13.1 30 12.0 NNW 17 20 9 11 1008.4 - 0.0
30/10:30pm 33.2 30.8 12.8 29 12.3 NNW 17 20 9 11 1008.8 - 0.0
30/10:00pm 33.7 30.8 12.4 27 12.8 N 19 24 10 13 1008.7 - 0.0
30/09:30pm 33.9 31.5 12.5 27 12.9 N 17 24 9 13 1008.9 - 0.0
30/09:00pm 34.3 31.1 13.1 27 12.9 N 22 26 12 14 1008.8 1007.5 0.0
30/08:30pm 34.9 32.5 13.8 28 13.0 N 19 20 10 11 1008.5 - 0.0
30/08:00pm 35.5 33.5 13.8 27 13.4 N 17 22 9 12 1008.3 - 0.0
30/07:30pm 36.1 33.3 13.3 25 14.0 N 20 28 11 15 1008.0 - 0.0
30/07:00pm 36.5 33.9 13.3 25 14.3 NNW 19 24 10 13 1007.8 - 0.0
30/06:30pm 37.0 33.1 13.4 24 14.6 N 26 32 14 17 1007.4 - 0.0
30/06:00pm 37.2 36.7 12.5 22 15.1 ESE 7 9 4 5 1006.7 1005.4 0.0
30/05:30pm 38.5 37.6 11.3 19 16.4 E 7 11 4 6 1006.5 - 0.0
30/05:00pm 39.3 37.4 10.6 18 17.2 E 11 15 6 8 1006.4 - 0.0
30/04:30pm 39.7 36.6 10.2 17 17.6 NE 17 24 9 13 1006.3 - 0.0
30/04:00pm 40.0 37.0 9.3 16 18.1 NE 15 24 8 13 1006.1 - 0.0
30/03:30pm 40.4 37.1 9.5 15 18.3 NE 17 28 9 15 1006.2 - 0.0
30/03:00pm 40.8 36.5 9.4 15 18.6 NE 22 28 12 15 1006.3 1005.0 0.0
30/02:30pm 40.6 36.6 8.1 14 18.8 E 19 28 10 15 1006.4 - 0.0
30/02:00pm 40.8 36.0 7.2 13 19.2 NE 22 33 12 18 1006.6 - 0.0
30/01:30pm 40.8 36.3 6.8 13 19.4 NE 20 35 11 19 1007.0 - 0.0
30/01:00pm 41.1 36.6 7.1 13 19.5 E 20 28 11 15 1007.2 - 0.0
30/12:30pm 41.1 38.3 10.0 15 18.6 ENE 15 20 8 11 1007.5 - 0.0
30/12:00pm 40.6 38.3 11.6 18 17.7 NE 15 24 8 13 1008.0 1006.7 0.0
30/11:30am 39.7 37.9 12.1 19 16.9 NE 13 26 7 14 1008.6 - 0.0
30/11:00am 39.4 37.5 13.1 21 16.3 NE 15 26 8 14 1009.1 - 0.0
30/10:30am 38.2 37.7 14.8 25 14.8 NNE 11 22 6 12 1009.5 - 0.0
30/10:00am 38.4 37.7 15.5 26 14.6 N 13 22 7 12 1010.1 - 0.0
30/09:30am 36.5 36.9 16.4 30 12.9 N 9 17 5 9 1010.5 - 0.0
30/09:00am 35.9 36.0 17.4 33 12.0 ENE 13 20 7 11 1011.0 1009.7 0.0
30/08:30am 35.1 35.4 17.8 36 11.3 NNE 13 20 7 11 1011.5 - 0.0
30/08:00am 34.2 33.8 17.1 36 11.0 NE 15 22 8 12 1011.6 - 0.0
30/07:30am 33.5 32.2 15.7 34 11.2 NE 17 26 9 14 1011.5 - 0.0
30/07:00am 33.0 32.1 15.9 35 10.8 NE 15 24 8 13 1011.2 - 0.0
30/06:30am 32.3 34.5 16.4 38 10.1 CALM 0 0 0 0 1010.8 - 0.0
30/06:00am 31.1 33.3 16.4 41 9.3 CALM 0 0 0 0 1010.6 1009.3 0.0
30/05:30am 29.9 31.1 16.8 45 8.3 S 6 7 3 4 1010.3 - 0.0
30/05:00am 29.2 29.9 16.1 45 8.2 S 7 9 4 5 1010.0 - 0.0
30/04:30am 28.6 28.9 15.1 43 8.3 SSE 7 9 4 5 1009.7 - 0.0
30/04:00am 28.4 29.1 15.6 45 7.9 S 6 7 3 4 1009.4 - 0.0
30/03:30am 29.5 30.1 15.7 43 8.6 S 7 11 4 6 1009.2 - 0.0
30/03:00am 29.7 30.5 15.9 43 8.6 WSW 6 7 3 4 1009.1 1007.8 0.0
30/02:30am 30.1 30.5 15.2 40 9.2 W 7 9 4 5 1009.0 - 0.0
30/02:00am 30.1 32.3 16.5 44 8.6 CALM 0 0 0 0 1009.0 - 0.0
30/01:30am 30.3 31.2 16.1 42 8.9 SW 6 7 3 4 1009.1 - 0.0
30/01:00am 30.5 30.9 14.7 38 9.7 W 6 7 3 4 1009.3 - 0.0
30/12:30am 30.9 29.8 14.2 36 10.2 N 13 15 7 8 1009.3 - 0.0
30/12:00am 31.3 29.8 14.3 35 10.4 NNW 15 17 8 9 1009.5 1008.2 0.0
 
Date/Time
WST
Temp
°C
App
Temp
°C
Dew
Point
Rel
Hum
%
Delta-T
°C
Wind Press
QNH
hPa
Press
MSL
hPa
Rain
since 9 am
mm
Dir
 
Spd
km/h
Gust
km/h
Spd
kts
Gust
kts
29/11:30pm 31.6 30.6 14.5 35 10.5 NNW 13 15 7 8 1009.8 - 0.0
29/11:00pm 32.2 30.9 14.7 34 10.8 NNW 15 19 8 10 1010.1 - 0.0
29/10:30pm 32.2 31.9 15.4 36 10.5 NNW 11 13 6 7 1010.5 - 0.0
29/10:00pm 32.8 32.6 15.6 35 10.8 NNW 11 15 6 8 1010.7 - 0.0
29/09:30pm 33.5 32.8 15.5 34 11.3 NNW 13 15 7 8 1010.7 - 0.0
29/09:00pm 33.9 33.3 15.7 33 11.5 N 13 17 7 9 1010.7 1009.4 0.0
29/08:30pm 34.0 32.9 14.3 30 12.2 NNW 13 19 7 10 1010.4 - 0.0
29/08:00pm 34.4 32.0 10.2 22 14.1 N 13 22 7 12 1010.1 - 0.0
29/07:30pm 35.6 35.4 10.4 21 14.8 N 2 6 1 3 1009.8 - 0.0
29/07:00pm 36.0 35.7 12.7 24 14.2 N 6 7 3 4 1009.8 - 0.0

Other Formats:

Comma delimited format used in spreadsheet applications
http://www.bom.gov.au/fwo/IDW60801/IDW60801.94217.axf

JavaScript Object Notation format (JSON) in row-major order
http://www.bom.gov.au/fwo/IDW60801/IDW60801.94217.json